createdAt,value
2019-05-05T00:00:19.789Z,0.5
2019-05-05T00:01:29.297Z,0.4
2019-05-05T00:02:38.859Z,0.5
2019-05-05T00:03:48.407Z,0.3
2019-05-05T00:04:57.936Z,0.3
2019-05-05T00:06:07.463Z,0.3
2019-05-05T00:07:16.971Z,0.3
2019-05-05T00:08:26.541Z,0.3
2019-05-05T00:09:36.066Z,0.3
2019-05-05T00:10:45.600Z,0.5
2019-05-05T00:11:55.162Z,0.6
2019-05-05T00:13:04.721Z,0.5
2019-05-05T00:14:15.191Z,0.3
2019-05-05T00:15:25.114Z,0.5
2019-05-05T00:16:35.036Z,0.4
2019-05-05T00:17:44.977Z,0.5
2019-05-05T00:18:54.407Z,0.7
2019-05-05T00:20:05.216Z,0.5
2019-05-05T00:21:15.080Z,0.7
2019-05-05T00:22:24.515Z,0.5
2019-05-05T00:23:34.497Z,0.4
2019-05-05T00:24:44.421Z,0.6
2019-05-05T00:25:55.239Z,0.3
2019-05-05T00:27:04.338Z,0.5
2019-05-05T00:28:14.287Z,0.6
2019-05-05T00:29:25.125Z,0.5
2019-05-05T00:30:34.291Z,0.5
2019-05-05T00:31:45.199Z,0.5
2019-05-05T00:32:54.817Z,0.5
2019-05-05T00:34:04.971Z,0.3
2019-05-05T00:35:14.815Z,0.6
2019-05-05T00:36:24.662Z,0.5
2019-05-05T00:37:34.546Z,1
2019-05-05T00:38:44.450Z,0.6
2019-05-05T00:39:54.360Z,0.4
2019-05-05T00:41:02.510Z,0.8
2019-05-05T00:42:12.022Z,0.7
2019-05-05T00:43:21.535Z,0.6
2019-05-05T00:44:31.062Z,0.5
2019-05-05T00:45:40.586Z,0.6
2019-05-05T00:46:50.144Z,0.8
2019-05-05T00:47:59.682Z,0.6
2019-05-05T00:49:09.214Z,0.5
2019-05-05T00:50:18.748Z,1.1
2019-05-05T00:51:28.288Z,0.7
2019-05-05T00:52:37.787Z,0.8
2019-05-05T00:53:47.389Z,0.8
2019-05-05T00:54:56.909Z,0.6
2019-05-05T00:56:06.447Z,0.6
2019-05-05T00:57:15.945Z,0.5
2019-05-05T00:58:25.472Z,0.6
2019-05-05T00:59:35.012Z,0.6
2019-05-05T01:00:44.541Z,0.7
2019-05-05T01:01:55.243Z,0.5
2019-05-05T01:03:04.806Z,1
2019-05-05T01:04:14.524Z,0.6
2019-05-05T01:05:25.285Z,0.8
2019-05-05T01:06:34.572Z,0.7
2019-05-05T01:07:44.372Z,0.6
2019-05-05T01:08:54.983Z,0.6
2019-05-05T01:10:04.909Z,0.7
2019-05-05T01:11:14.546Z,0.6
2019-05-05T01:12:24.444Z,0.6
2019-05-05T01:13:35.127Z,0.7
2019-05-05T01:14:44.723Z,0.4
2019-05-05T01:15:54.175Z,0.9
2019-05-05T01:17:05.060Z,0.6
2019-05-05T01:18:15.193Z,0.6
2019-05-05T01:19:24.373Z,0.9
2019-05-05T01:20:34.279Z,0.6
2019-05-05T01:21:45.196Z,0.6
2019-05-05T01:22:55.247Z,0.4
2019-05-05T01:24:05.080Z,0.6
2019-05-05T01:25:14.926Z,0.7
2019-05-05T01:26:24.816Z,0.9
2019-05-05T01:27:34.717Z,0.7
2019-05-05T01:28:44.743Z,0.8
2019-05-05T01:29:54.554Z,0.7
2019-05-05T01:31:05.414Z,0.6
2019-05-05T01:32:15.178Z,0.9
2019-05-05T01:33:25.020Z,0.5
2019-05-05T01:34:34.835Z,0.6
2019-05-05T01:35:44.856Z,0.6
2019-05-05T01:36:54.407Z,0.6
2019-05-05T01:38:04.862Z,1
2019-05-05T01:39:14.696Z,0.6
2019-05-05T01:40:24.727Z,0.8
2019-05-05T01:41:34.764Z,0.8
2019-05-05T01:42:44.659Z,0.6
2019-05-05T01:43:54.296Z,0.7
2019-05-05T01:45:04.501Z,0.8
2019-05-05T01:46:14.287Z,0.5
2019-05-05T01:47:25.387Z,0.7
2019-05-05T01:48:35.057Z,0.4
2019-05-05T01:49:45.209Z,0.7
2019-05-05T01:50:54.473Z,0.6
2019-05-05T01:52:04.401Z,0.6
2019-05-05T01:53:15.189Z,0.5
2019-05-05T01:54:24.946Z,0.5
2019-05-05T01:55:34.765Z,0.4
2019-05-05T01:56:44.586Z,0.8
2019-05-05T01:57:54.309Z,0.6
2019-05-05T01:59:05.113Z,0.6
2019-05-05T02:00:14.790Z,0.5
2019-05-05T02:01:24.705Z,0.4
2019-05-05T02:02:34.232Z,0.7
2019-05-05T02:03:44.238Z,0.8
2019-05-05T02:04:55.286Z,0.8
2019-05-05T02:06:05.198Z,0.7
2019-05-05T02:07:14.854Z,0.7
2019-05-05T02:08:24.565Z,0.9
2019-05-05T02:09:35.335Z,0.4
2019-05-05T02:10:45.296Z,0.5
2019-05-05T02:11:55.035Z,0.7
2019-05-05T02:13:04.783Z,0.6
2019-05-05T02:14:15.536Z,0.7
2019-05-05T02:15:25.071Z,0.8
2019-05-05T02:16:34.648Z,0.6
2019-05-05T02:17:44.531Z,0.8
2019-05-05T02:18:54.454Z,0.7
2019-05-05T02:20:05.232Z,0.8
2019-05-05T02:21:14.373Z,0.5
2019-05-05T02:22:25.191Z,0.9
2019-05-05T02:23:35.097Z,0.6
2019-05-05T02:24:44.502Z,0.5
2019-05-05T02:25:55.288Z,0.5
2019-05-05T02:27:05.107Z,0.6
2019-05-05T02:28:15.003Z,0.6
2019-05-05T02:29:24.720Z,0.8
2019-05-05T02:30:35.884Z,0.6
2019-05-05T02:31:45.360Z,0.5
2019-05-05T02:32:55.348Z,0.7
2019-05-05T02:34:05.421Z,1.2
2019-05-05T02:35:16.192Z,0.5
2019-05-05T02:36:25.699Z,1
2019-05-05T02:37:35.688Z,0.9
2019-05-05T02:38:46.118Z,0.5
2019-05-05T02:39:58.745Z,0.6
2019-05-05T02:41:06.235Z,0.8
2019-05-05T02:42:15.750Z,0.7
2019-05-05T02:43:25.296Z,0.7
2019-05-05T02:44:34.886Z,0.8
2019-05-05T02:45:44.380Z,0.7
2019-05-05T02:46:55.098Z,0.8
2019-05-05T02:48:05.846Z,0.7
2019-05-05T02:49:15.321Z,0.6
2019-05-05T02:50:25.153Z,0.8
2019-05-05T02:51:35.426Z,0.7
2019-05-05T02:52:44.566Z,0.7
2019-05-05T02:53:54.115Z,0.5
2019-05-05T02:55:04.137Z,0.8
2019-05-05T02:56:14.599Z,0.8
2019-05-05T02:57:24.044Z,0.9
2019-05-05T02:58:33.942Z,0.6
2019-05-05T02:59:43.465Z,0.8
2019-05-05T03:00:54.048Z,0.7
2019-05-05T03:02:04.259Z,1.1
2019-05-05T03:03:13.550Z,0.9
2019-05-05T03:04:24.407Z,0.7
2019-05-05T03:05:34.048Z,1
2019-05-05T03:06:43.705Z,1.1
2019-05-05T03:07:54.204Z,1.3
2019-05-05T03:09:04.419Z,0.8
2019-05-05T03:10:14.073Z,0.7
2019-05-05T03:11:23.688Z,0.7
2019-05-05T03:12:34.412Z,0.6
2019-05-05T03:13:44.193Z,1.3
2019-05-05T03:14:53.794Z,1.2
2019-05-05T03:16:03.722Z,0.7
2019-05-05T03:17:14.276Z,0.9
2019-05-05T03:18:24.605Z,1
2019-05-05T03:19:33.949Z,0.9
2019-05-05T03:20:43.650Z,0.8
2019-05-05T03:21:54.525Z,0.8
2019-05-05T03:23:04.162Z,1
2019-05-05T03:24:14.309Z,0.7
2019-05-05T03:25:24.141Z,1.3
2019-05-05T03:26:33.987Z,0.8
2019-05-05T03:27:44.517Z,1.1
2019-05-05T03:28:54.475Z,1.1
2019-05-05T03:30:04.932Z,0.8
2019-05-05T03:31:15.853Z,0.8
2019-05-05T03:32:25.579Z,1
2019-05-05T03:33:35.264Z,0.9
2019-05-05T03:34:44.650Z,0.7
2019-05-05T03:35:54.269Z,1
2019-05-05T03:37:04.278Z,0.7
2019-05-05T03:38:14.191Z,0.8
2019-05-05T03:39:23.799Z,0.7
2019-05-05T03:40:34.368Z,0.9
2019-05-05T03:41:43.900Z,0.9
2019-05-05T03:42:53.614Z,0.8
2019-05-05T03:44:04.689Z,0.9
2019-05-05T03:45:14.475Z,0.9
2019-05-05T03:46:23.971Z,1
2019-05-05T03:47:33.738Z,0.7
2019-05-05T03:48:43.804Z,0.8
2019-05-05T03:49:53.546Z,0.9
2019-05-05T03:51:15.294Z,0.7
2019-05-05T03:52:13.936Z,0.9
2019-05-05T03:53:24.557Z,0.5
2019-05-05T03:54:34.217Z,0.8
2019-05-05T03:55:43.899Z,1.1
2019-05-05T03:56:54.326Z,0.7
2019-05-05T03:58:04.075Z,0.9
2019-05-05T03:59:14.216Z,0.6
2019-05-05T04:00:23.564Z,0.9
2019-05-05T04:01:34.583Z,1
2019-05-05T04:02:44.493Z,1.2
2019-05-05T04:03:54.137Z,0.8
2019-05-05T04:05:03.978Z,0.9
2019-05-05T04:06:14.641Z,0.8
2019-05-05T04:07:24.191Z,0.8
2019-05-05T04:08:33.858Z,0.8
2019-05-05T04:09:43.835Z,0.9
2019-05-05T04:10:54.589Z,0.8
2019-05-05T04:12:04.400Z,1.1
2019-05-05T04:13:14.025Z,1
2019-05-05T04:14:24.929Z,0.6
2019-05-05T04:15:34.056Z,1
2019-05-05T04:16:43.667Z,1
2019-05-05T04:17:53.659Z,0.7
2019-05-05T04:19:03.544Z,0.7
2019-05-05T04:20:13.743Z,0.9
2019-05-05T04:21:31.060Z,1.1
2019-05-05T04:22:34.281Z,0.8
2019-05-05T04:23:44.238Z,0.8
2019-05-05T04:24:54.082Z,0.7
2019-05-05T04:26:03.894Z,0.8
2019-05-05T04:27:14.606Z,0.9
2019-05-05T04:28:24.108Z,0.6
2019-05-05T04:29:34.435Z,1
2019-05-05T04:30:44.428Z,0.8
2019-05-05T04:31:53.994Z,0.8
2019-05-05T04:33:03.762Z,0.7
2019-05-05T04:34:13.513Z,0.9
2019-05-05T04:35:24.588Z,0.9
2019-05-05T04:36:34.021Z,0.9
2019-05-05T04:37:43.675Z,1.3
2019-05-05T04:38:54.466Z,1
2019-05-05T04:40:04.124Z,0.6
2019-05-05T04:41:14.103Z,0.9
2019-05-05T04:42:24.475Z,0.9
2019-05-05T04:43:33.886Z,1
2019-05-05T04:44:44.839Z,1.2
2019-05-05T04:45:54.131Z,1.1
2019-05-05T04:47:03.851Z,0.8
2019-05-05T04:48:13.735Z,0.7
2019-05-05T04:49:23.551Z,0.7
2019-05-05T04:50:34.477Z,1
2019-05-05T04:51:47.520Z,1
2019-05-05T04:52:54.057Z,0.9
2019-05-05T04:54:03.848Z,0.7
2019-05-05T04:55:13.823Z,0.9
2019-05-05T04:56:23.517Z,0.9
2019-05-05T04:57:35.415Z,0.5
2019-05-05T04:58:44.497Z,0.7
2019-05-05T04:59:54.252Z,0.9
2019-05-05T05:01:04.641Z,1
2019-05-05T05:02:14.478Z,1.1
2019-05-05T05:03:23.972Z,0.9
2019-05-05T05:04:33.609Z,0.7
2019-05-05T05:05:44.180Z,1
2019-05-05T05:06:54.181Z,1.1
2019-05-05T05:08:03.839Z,1
2019-05-05T05:09:14.617Z,1.1
2019-05-05T05:10:24.087Z,0.8
2019-05-05T05:11:33.690Z,0.8
2019-05-05T05:12:43.553Z,1
2019-05-05T05:13:54.305Z,1.1
2019-05-05T05:15:04.268Z,1.1
2019-05-05T05:16:13.941Z,0.9
2019-05-05T05:17:24.685Z,1.1
2019-05-05T05:18:34.342Z,1.2
2019-05-05T05:19:43.889Z,1.3
2019-05-05T05:20:54.804Z,1
2019-05-05T05:22:04.895Z,1.2
2019-05-05T05:23:14.458Z,4.3
2019-05-05T05:24:23.994Z,3.3
2019-05-05T05:25:34.613Z,1.6
2019-05-05T05:26:44.279Z,1.7
2019-05-05T05:27:53.752Z,5.6
2019-05-05T05:29:04.485Z,11.7
2019-05-05T05:30:13.880Z,5
2019-05-05T05:31:24.439Z,1.2
2019-05-05T05:32:34.026Z,0.9
2019-05-05T05:33:43.697Z,1.3
2019-05-05T05:34:54.231Z,0.8
2019-05-05T05:36:03.981Z,1
2019-05-05T05:37:13.473Z,1
2019-05-05T05:38:24.200Z,1
2019-05-05T05:39:33.532Z,1.3
2019-05-05T05:40:44.211Z,1
2019-05-05T05:41:54.058Z,1.3
2019-05-05T05:43:04.654Z,1
2019-05-05T05:44:14.119Z,1.2
2019-05-05T05:45:23.801Z,1.3
2019-05-05T05:46:33.468Z,1
2019-05-05T05:47:44.167Z,1.5
2019-05-05T05:48:53.841Z,0.9
2019-05-05T05:50:03.959Z,0.9
2019-05-05T05:51:14.605Z,1.1
2019-05-05T05:52:24.205Z,1.3
2019-05-05T05:53:34.839Z,1.1
2019-05-05T05:54:44.265Z,1
2019-05-05T05:55:53.875Z,0.7
2019-05-05T05:57:04.268Z,1.1
2019-05-05T05:58:14.029Z,0.9
2019-05-05T05:59:24.667Z,0.8
2019-05-05T06:00:34.310Z,1
2019-05-05T06:01:43.922Z,1.1
2019-05-05T06:02:54.532Z,0.8
2019-05-05T06:04:04.177Z,1.2
2019-05-05T06:05:14.712Z,1.2
2019-05-05T06:06:24.177Z,1
2019-05-05T06:07:33.694Z,1
2019-05-05T06:08:43.927Z,1.1
2019-05-05T06:09:54.131Z,1.2
2019-05-05T06:11:04.403Z,1.2
2019-05-05T06:12:14.135Z,1
2019-05-05T06:13:24.152Z,1
2019-05-05T06:14:34.011Z,0.9
2019-05-05T06:15:44.302Z,1
2019-05-05T06:16:53.998Z,1
2019-05-05T06:18:04.607Z,1.1
2019-05-05T06:19:14.117Z,0.8
2019-05-05T06:20:23.820Z,1
2019-05-05T06:21:33.713Z,1
2019-05-05T06:22:44.447Z,0.9
2019-05-05T06:23:53.732Z,0.9
2019-05-05T06:25:06.107Z,1
2019-05-05T06:26:15.138Z,0.9
2019-05-05T06:27:23.684Z,0.8
2019-05-05T06:28:34.159Z,1
2019-05-05T06:29:43.897Z,1.4
2019-05-05T06:30:54.605Z,1.3
2019-05-05T06:32:04.060Z,1
2019-05-05T06:33:13.743Z,0.9
2019-05-05T06:34:24.392Z,0.9
2019-05-05T06:35:33.774Z,1.3
2019-05-05T06:36:44.421Z,0.9
2019-05-05T06:37:54.209Z,1.2
2019-05-05T06:39:04.545Z,0.9
2019-05-05T06:40:13.891Z,1.5
2019-05-05T06:41:23.700Z,1
2019-05-05T06:42:34.229Z,0.9
2019-05-05T06:43:44.093Z,1.2
2019-05-05T06:44:53.583Z,1.1
2019-05-05T06:46:04.036Z,0.7
2019-05-05T06:47:13.641Z,1.2
2019-05-05T06:48:23.708Z,1.1
2019-05-05T06:49:34.482Z,0.7
2019-05-05T06:50:43.788Z,1
2019-05-05T06:51:54.642Z,1
2019-05-05T06:53:04.227Z,1.1
2019-05-05T06:54:13.823Z,1.2
2019-05-05T06:55:24.499Z,1.2
2019-05-05T06:56:34.245Z,0.9
2019-05-05T06:57:44.392Z,1.4
2019-05-05T06:58:54.087Z,0.9
2019-05-05T07:00:03.699Z,1.1
2019-05-05T07:01:14.260Z,1.1
2019-05-05T07:02:23.765Z,1.3
2019-05-05T07:03:33.606Z,1.4
2019-05-05T07:04:44.289Z,1.2
2019-05-05T07:05:53.887Z,1.4
2019-05-05T07:07:05.078Z,1.5
2019-05-05T07:08:14.030Z,0.9
2019-05-05T07:09:24.436Z,1.2
2019-05-05T07:10:34.078Z,0.9
2019-05-05T07:11:43.772Z,1.2
2019-05-05T07:12:54.348Z,1.4
2019-05-05T07:14:03.804Z,1.4
2019-05-05T07:15:14.480Z,1.1
2019-05-05T07:16:24.296Z,1.1
2019-05-05T07:17:33.874Z,1.1
2019-05-05T07:18:44.537Z,1.2
2019-05-05T07:19:54.314Z,1.4
2019-05-05T07:21:03.606Z,1.2
2019-05-05T07:22:14.004Z,1.2
2019-05-05T07:23:24.573Z,1.2
2019-05-05T07:24:34.380Z,0.9
2019-05-05T07:25:45.771Z,1.2
2019-05-05T07:26:54.090Z,1.2
2019-05-05T07:28:04.206Z,1.1
2019-05-05T07:29:15.319Z,0.9
2019-05-05T07:30:24.391Z,1
2019-05-05T07:31:34.300Z,1
2019-05-05T07:32:44.272Z,1.4
2019-05-05T07:33:54.395Z,0.8
2019-05-05T07:35:04.056Z,0.9
2019-05-05T07:36:14.512Z,0.9
2019-05-05T07:37:23.870Z,1.3
2019-05-05T07:38:33.674Z,1.1
2019-05-05T07:39:44.474Z,1.5
2019-05-05T07:40:54.481Z,0.8
2019-05-05T07:42:04.490Z,1.2
2019-05-05T07:43:14.599Z,1.4
2019-05-05T07:44:28.616Z,1.1
2019-05-05T07:45:34.358Z,1.1
2019-05-05T07:46:44.045Z,1
2019-05-05T07:47:54.279Z,1.3
2019-05-05T07:49:03.930Z,1
2019-05-05T07:50:26.169Z,0.8
2019-05-05T07:51:24.213Z,1
2019-05-05T07:52:34.352Z,1.2
2019-05-05T07:53:44.333Z,0.9
2019-05-05T07:54:55.092Z,1.1
2019-05-05T07:56:07.473Z,1.3
2019-05-05T07:57:15.100Z,1.3
2019-05-05T07:58:24.627Z,1
2019-05-05T07:59:34.185Z,0.9
2019-05-05T08:00:43.819Z,1
2019-05-05T08:01:54.742Z,1.3
2019-05-05T08:03:03.838Z,1
2019-05-05T08:04:13.734Z,1.2
2019-05-05T08:05:24.566Z,1.1
2019-05-05T08:06:33.873Z,0.8
2019-05-05T08:07:44.622Z,1
2019-05-05T08:08:54.542Z,0.9
2019-05-05T08:10:04.508Z,1.2
2019-05-05T08:11:14.667Z,1
2019-05-05T08:12:24.888Z,1.1
2019-05-05T08:13:34.616Z,1.1
2019-05-05T08:14:44.489Z,0.9
2019-05-05T08:15:59.294Z,0.9
2019-05-05T08:17:04.282Z,1.1
2019-05-05T08:18:13.963Z,1
2019-05-05T08:19:24.178Z,1
2019-05-05T08:20:33.976Z,0.9
2019-05-05T08:21:43.763Z,1.2
2019-05-05T08:22:53.638Z,1
2019-05-05T08:24:04.458Z,0.9
2019-05-05T08:25:14.470Z,1
2019-05-05T08:26:23.687Z,1.1
2019-05-05T08:27:33.978Z,1.2
2019-05-05T08:28:43.440Z,0.8
2019-05-05T08:29:54.085Z,0.7
2019-05-05T08:31:03.903Z,0.9
2019-05-05T08:32:13.626Z,1.2
2019-05-05T08:33:24.097Z,0.7
2019-05-05T08:34:33.934Z,0.8
2019-05-05T08:35:44.826Z,0.9
2019-05-05T08:36:53.850Z,0.8
2019-05-05T08:38:04.508Z,1
2019-05-05T08:39:14.224Z,0.8
2019-05-05T08:40:23.945Z,1.2
2019-05-05T08:41:33.811Z,1.3
2019-05-05T08:42:44.501Z,1.2
2019-05-05T08:43:54.255Z,0.8
2019-05-05T08:45:04.559Z,1
2019-05-05T08:46:14.415Z,0.7
2019-05-05T08:47:24.563Z,0.8
2019-05-05T08:48:34.181Z,0.7
2019-05-05T08:49:44.215Z,1.1
2019-05-05T08:50:54.143Z,0.9
2019-05-05T08:52:03.988Z,1
2019-05-05T08:53:13.803Z,0.9
2019-05-05T08:54:23.637Z,0.8
2019-05-05T08:55:33.905Z,0.9
2019-05-05T08:56:44.704Z,0.5
2019-05-05T08:57:54.122Z,1.1
2019-05-05T08:59:03.700Z,0.8
2019-05-05T09:00:13.799Z,1
2019-05-05T09:01:23.752Z,0.7
2019-05-05T09:02:34.040Z,0.8
2019-05-05T09:03:44.251Z,1.2
2019-05-05T09:04:53.733Z,1.3
2019-05-05T09:06:04.609Z,0.7
2019-05-05T09:07:13.716Z,0.7
2019-05-05T09:08:24.103Z,0.8
2019-05-05T09:09:33.572Z,1
2019-05-05T09:10:44.507Z,1.1
2019-05-05T09:11:54.177Z,1.3
2019-05-05T09:13:03.981Z,0.8
2019-05-05T09:14:14.853Z,0.9
2019-05-05T09:15:24.333Z,0.8
2019-05-05T09:16:33.579Z,1
2019-05-05T09:17:43.930Z,0.7
2019-05-05T09:18:54.413Z,1.1
2019-05-05T09:20:04.603Z,0.9
2019-05-05T09:21:13.707Z,0.9
2019-05-05T09:22:24.556Z,0.9
2019-05-05T09:23:34.656Z,0.9
2019-05-05T09:24:44.607Z,1.2
2019-05-05T09:25:54.071Z,0.8
2019-05-05T09:27:03.725Z,1
2019-05-05T09:28:14.740Z,0.8
2019-05-05T09:29:24.229Z,0.7
2019-05-05T09:30:33.923Z,1
2019-05-05T09:31:44.848Z,0.8
2019-05-05T09:32:54.076Z,1.1
2019-05-05T09:34:04.129Z,0.8
2019-05-05T09:35:13.851Z,0.9
2019-05-05T09:36:24.288Z,1
2019-05-05T09:37:33.939Z,0.8
2019-05-05T09:38:44.560Z,1
2019-05-05T09:39:54.103Z,1.1
2019-05-05T09:41:03.929Z,0.9
2019-05-05T09:42:14.607Z,0.9
2019-05-05T09:43:24.088Z,0.5
2019-05-05T09:44:34.591Z,0.7
2019-05-05T09:45:44.233Z,0.7
2019-05-05T09:46:53.862Z,1
2019-05-05T09:48:04.307Z,0.8
2019-05-05T09:49:14.038Z,0.9
2019-05-05T09:50:23.674Z,0.7
2019-05-05T09:51:34.458Z,1
2019-05-05T09:52:44.305Z,1.1
2019-05-05T09:53:54.144Z,0.8
2019-05-05T09:55:03.780Z,0.9
2019-05-05T09:56:14.494Z,1
2019-05-05T09:57:23.683Z,0.8
2019-05-05T09:58:34.496Z,0.8
2019-05-05T09:59:44.058Z,0.9
2019-05-05T10:00:54.674Z,0.7
2019-05-05T10:02:04.518Z,1.4
2019-05-05T10:03:14.449Z,0.8
2019-05-05T10:04:24.257Z,0.6
2019-05-05T10:05:34.254Z,0.9
2019-05-05T10:06:47.206Z,0.7
2019-05-05T10:07:54.458Z,0.9
2019-05-05T10:09:03.339Z,0.8
2019-05-05T10:10:13.775Z,1
2019-05-05T10:11:23.815Z,0.7
2019-05-05T10:12:33.769Z,1.1
2019-05-05T10:13:44.219Z,0.7
2019-05-05T10:14:54.170Z,0.9
2019-05-05T10:16:04.016Z,0.8
2019-05-05T10:17:14.054Z,0.8
2019-05-05T10:18:25.321Z,0.9
2019-05-05T10:19:34.056Z,0.8
2019-05-05T10:20:43.573Z,0.7
2019-05-05T10:21:53.095Z,0.8
2019-05-05T10:23:02.628Z,0.5
2019-05-05T10:24:26.985Z,0.7
2019-05-05T10:25:23.869Z,0.9
2019-05-05T10:26:34.418Z,1
2019-05-05T10:27:47.416Z,1
2019-05-05T10:28:54.254Z,0.8
2019-05-05T10:30:04.162Z,0.7
2019-05-05T10:31:13.774Z,0.5
2019-05-05T10:32:24.455Z,0.7
2019-05-05T10:33:36.233Z,1
2019-05-05T10:34:44.061Z,1.1
2019-05-05T10:35:54.108Z,1
2019-05-05T10:37:04.155Z,1
2019-05-05T10:38:14.246Z,0.8
2019-05-05T10:39:24.117Z,1
2019-05-05T10:40:33.911Z,0.6
2019-05-05T10:41:44.125Z,1
2019-05-05T10:42:54.028Z,0.7
2019-05-05T10:44:03.640Z,0.9
2019-05-05T10:45:13.564Z,0.7
2019-05-05T10:46:23.573Z,0.6
2019-05-05T10:47:33.399Z,0.7
2019-05-05T10:48:42.116Z,0.7
2019-05-05T10:49:51.663Z,1
2019-05-05T10:51:01.197Z,0.9
2019-05-05T10:52:10.738Z,0.8
2019-05-05T10:53:20.239Z,0.8
2019-05-05T10:54:41.455Z,0.6
2019-05-05T10:55:40.282Z,0.7
2019-05-05T10:56:49.811Z,0.8
2019-05-05T10:57:59.325Z,1
2019-05-05T10:59:08.868Z,0.7
2019-05-05T11:00:18.391Z,0.7
2019-05-05T11:01:27.904Z,0.9
2019-05-05T11:02:38.440Z,0.6
2019-05-05T11:03:47.998Z,0.7
2019-05-05T11:04:57.539Z,1
2019-05-05T11:06:07.072Z,0.8
2019-05-05T11:07:16.603Z,0.9
2019-05-05T11:08:26.131Z,0.7
2019-05-05T11:09:35.689Z,0.8
2019-05-05T11:10:45.337Z,0.8
2019-05-05T11:11:54.721Z,0.9
2019-05-05T11:13:04.251Z,0.8
2019-05-05T11:14:14.214Z,0.7
2019-05-05T11:15:24.662Z,0.5
2019-05-05T11:16:33.843Z,0.8
2019-05-05T11:17:43.897Z,0.7
2019-05-05T11:18:53.992Z,0.8
2019-05-05T11:20:03.774Z,0.8
2019-05-05T11:21:14.421Z,0.9
2019-05-05T11:22:24.166Z,0.5
2019-05-05T11:23:34.519Z,0.7
2019-05-05T11:24:54.912Z,0.6
2019-05-05T11:25:54.485Z,0.5
2019-05-05T11:27:04.414Z,0.9
2019-05-05T11:28:13.218Z,0.8
2019-05-05T11:29:24.027Z,1.2
2019-05-05T11:30:33.974Z,0.9
2019-05-05T11:31:42.788Z,0.8
2019-05-05T11:32:52.335Z,1
2019-05-05T11:34:01.858Z,0.6
2019-05-05T11:35:11.372Z,0.7
2019-05-05T11:36:20.893Z,1.2
2019-05-05T11:37:30.406Z,1
2019-05-05T11:38:41.544Z,0.7
2019-05-05T11:39:50.478Z,0.7
2019-05-05T11:40:59.974Z,0.8
2019-05-05T11:42:09.499Z,0.9
2019-05-05T11:43:19.015Z,0.8
2019-05-05T11:44:28.544Z,1
2019-05-05T11:45:38.067Z,0.6
2019-05-05T11:46:47.574Z,0.8
2019-05-05T11:47:57.120Z,0.9
2019-05-05T11:49:06.629Z,0.7
2019-05-05T11:50:16.182Z,0.6
2019-05-05T11:51:25.696Z,0.7
2019-05-05T11:52:35.227Z,0.8
2019-05-05T11:53:44.921Z,0.8
2019-05-05T11:54:55.576Z,0.5
2019-05-05T11:56:04.812Z,0.6
2019-05-05T11:57:14.323Z,0.9
2019-05-05T11:58:24.762Z,0.6
2019-05-05T11:59:34.408Z,0.7
2019-05-05T12:00:44.055Z,0.8
2019-05-05T12:01:54.875Z,0.6
2019-05-05T12:03:03.985Z,0.6
2019-05-05T12:04:14.512Z,0.9
2019-05-05T12:05:24.409Z,0.8
2019-05-05T12:06:34.020Z,0.8
2019-05-05T12:07:43.618Z,0.8
2019-05-05T12:08:52.605Z,0.8
2019-05-05T12:10:02.125Z,0.6
2019-05-05T12:11:11.636Z,0.9
2019-05-05T12:12:21.161Z,0.6
2019-05-05T12:13:30.686Z,0.7
2019-05-05T12:14:40.223Z,0.8
2019-05-05T12:15:49.736Z,0.6
2019-05-05T12:16:59.255Z,0.9
2019-05-05T12:18:08.768Z,0.5
2019-05-05T12:19:18.290Z,0.6
2019-05-05T12:20:27.836Z,0.7
2019-05-05T12:21:37.385Z,0.6
2019-05-05T12:22:46.885Z,0.6
2019-05-05T12:23:56.413Z,0.9
2019-05-05T12:25:05.927Z,0.9
2019-05-05T12:26:15.424Z,0.7
2019-05-05T12:27:24.945Z,0.5
2019-05-05T12:28:34.688Z,0.8
2019-05-05T12:29:44.190Z,0.8
2019-05-05T12:30:55.146Z,0.8
2019-05-05T12:32:04.046Z,0.7
2019-05-05T12:33:13.844Z,0.8
2019-05-05T12:34:23.602Z,0.5
2019-05-05T12:35:34.002Z,0.9
2019-05-05T12:36:44.499Z,0.6
2019-05-05T12:37:53.887Z,0.7
2019-05-05T12:39:03.714Z,0.8
2019-05-05T12:40:14.261Z,0.8
2019-05-05T12:41:23.816Z,0.5
2019-05-05T12:42:32.790Z,0.7
2019-05-05T12:43:44.100Z,0.7
2019-05-05T12:44:53.714Z,0.7
2019-05-05T12:46:04.488Z,0.4
2019-05-05T12:47:14.469Z,0.7
2019-05-05T12:48:24.072Z,0.4
2019-05-05T12:49:33.780Z,0.5
2019-05-05T12:50:44.251Z,0.6
2019-05-05T12:51:54.047Z,0.3
2019-05-05T12:53:04.089Z,0.5
2019-05-05T12:54:14.637Z,0.5
2019-05-05T12:55:28.267Z,1
2019-05-05T12:56:34.206Z,0.6
2019-05-05T12:57:43.657Z,0.7
2019-05-05T12:58:54.486Z,0.6
2019-05-05T13:00:04.247Z,0.5
2019-05-05T13:01:14.260Z,0.6
2019-05-05T13:02:23.658Z,0.7
2019-05-05T13:03:34.571Z,0.7
2019-05-05T13:04:43.691Z,0.6
2019-05-05T13:05:53.602Z,0.7
2019-05-05T13:07:04.606Z,0.6
2019-05-05T13:08:14.307Z,0.7
2019-05-05T13:09:24.322Z,0.7
2019-05-05T13:10:33.735Z,0.5
2019-05-05T13:11:43.581Z,0.9
2019-05-05T13:12:54.244Z,0.5
2019-05-05T13:14:03.655Z,0.7
2019-05-05T13:15:14.169Z,0.5
2019-05-05T13:16:24.963Z,0.6
2019-05-05T13:17:33.938Z,0.5
2019-05-05T13:18:42.977Z,0.6
2019-05-05T13:19:52.516Z,0.7
2019-05-05T13:21:04.061Z,0.7
2019-05-05T13:22:12.567Z,0.6
2019-05-05T13:23:23.521Z,0.8
2019-05-05T13:24:34.314Z,0.9
2019-05-05T13:25:55.038Z,0.8
2019-05-05T13:26:54.040Z,0.8
2019-05-05T13:28:04.069Z,0.7
2019-05-05T13:29:13.910Z,0.6
2019-05-05T13:30:23.675Z,0.4
2019-05-05T13:31:33.739Z,0.6
2019-05-05T13:32:44.052Z,0.7
2019-05-05T13:33:54.771Z,0.5
2019-05-05T13:35:04.094Z,0.6
2019-05-05T13:36:13.727Z,0.6
2019-05-05T13:37:24.417Z,0.5
2019-05-05T13:38:34.298Z,0.7
2019-05-05T13:39:44.526Z,0.5
2019-05-05T13:40:54.381Z,0.8
2019-05-05T13:42:04.526Z,0.6
2019-05-05T13:43:14.433Z,0.9
2019-05-05T13:44:24.240Z,0.7
2019-05-05T13:45:34.262Z,0.4
2019-05-05T13:46:44.264Z,0.6
2019-05-05T13:47:54.090Z,0.6
2019-05-05T13:49:04.035Z,0.7
2019-05-05T13:50:14.109Z,0.8
2019-05-05T13:51:23.980Z,0.9
2019-05-05T13:52:33.724Z,0.8
2019-05-05T13:53:44.702Z,0.8
2019-05-05T13:54:54.330Z,0.7
2019-05-05T13:56:11.449Z,0.7
2019-05-05T13:57:14.337Z,0.9
2019-05-05T13:58:24.919Z,0.7
2019-05-05T13:59:34.005Z,0.8
2019-05-05T14:00:44.099Z,0.8
2019-05-05T14:01:53.981Z,0.6
2019-05-05T14:03:03.854Z,0.8
2019-05-05T14:04:12.771Z,0.9
2019-05-05T14:05:23.999Z,0.5
2019-05-05T14:06:33.462Z,0.7
2019-05-05T14:07:43.597Z,0.5
2019-05-05T14:08:53.998Z,0.7
2019-05-05T14:10:03.945Z,0.8
2019-05-05T14:11:14.180Z,0.6
2019-05-05T14:12:24.135Z,1
2019-05-05T14:13:34.152Z,1
2019-05-05T14:14:44.090Z,0.6
2019-05-05T14:15:54.470Z,0.6
2019-05-05T14:17:04.185Z,0.7
2019-05-05T14:18:14.231Z,0.8
2019-05-05T14:19:24.784Z,0.5
2019-05-05T14:20:34.553Z,0.7
2019-05-05T14:21:44.536Z,0.8
2019-05-05T14:22:54.301Z,0.7
2019-05-05T14:24:03.958Z,0.5
2019-05-05T14:25:13.619Z,0.6
2019-05-05T14:26:27.882Z,0.6
2019-05-05T14:27:33.457Z,0.6
2019-05-05T14:28:42.980Z,0.8
2019-05-05T14:29:52.510Z,0.8
2019-05-05T14:31:02.030Z,0.6
2019-05-05T14:32:13.367Z,0.9
2019-05-05T14:33:23.660Z,0.7
2019-05-05T14:34:33.366Z,0.7
2019-05-05T14:35:43.366Z,0.8
2019-05-05T14:36:53.446Z,0.7
2019-05-05T14:38:03.978Z,0.6
2019-05-05T14:39:14.638Z,0.6
2019-05-05T14:40:23.283Z,0.5
2019-05-05T14:41:35.021Z,0.5
2019-05-05T14:42:43.570Z,0.6
2019-05-05T14:43:54.606Z,0.6
2019-05-05T14:45:04.722Z,0.6
2019-05-05T14:46:14.561Z,0.6
2019-05-05T14:47:24.437Z,0.4
2019-05-05T14:48:37.047Z,0.6
2019-05-05T14:49:44.583Z,0.7
2019-05-05T14:50:54.388Z,0.7
2019-05-05T14:52:04.411Z,0.6
2019-05-05T14:53:14.489Z,0.6
2019-05-05T14:54:23.718Z,0.7
2019-05-05T14:55:33.582Z,0.5
2019-05-05T14:56:44.009Z,0.8
2019-05-05T14:57:53.494Z,0.5
2019-05-05T14:59:03.692Z,0.5
2019-05-05T15:00:13.759Z,0.7
2019-05-05T15:01:24.710Z,0.7
2019-05-05T15:02:34.739Z,0.4
2019-05-05T15:03:44.442Z,0.6
2019-05-05T15:04:53.930Z,0.6
2019-05-05T15:06:03.963Z,0.9
2019-05-05T15:07:14.410Z,0.4
2019-05-05T15:08:24.216Z,0.7
2019-05-05T15:09:33.715Z,0.7
2019-05-05T15:10:43.984Z,0.6
2019-05-05T15:11:53.812Z,0.8
2019-05-05T15:13:04.245Z,0.6
2019-05-05T15:14:13.836Z,0.7
2019-05-05T15:15:23.598Z,0.6
2019-05-05T15:16:34.584Z,0.7
2019-05-05T15:17:43.260Z,0.7
2019-05-05T15:18:52.779Z,0.7
2019-05-05T15:20:02.293Z,0.6
2019-05-05T15:21:11.823Z,1
2019-05-05T15:22:21.339Z,0.5
2019-05-05T15:23:30.863Z,0.5
2019-05-05T15:24:40.393Z,0.7
2019-05-05T15:25:50.013Z,0.6
2019-05-05T15:26:59.601Z,0.5
2019-05-05T15:28:09.118Z,0.6
2019-05-05T15:29:18.653Z,0.8
2019-05-05T15:30:28.174Z,0.5
2019-05-05T15:31:37.759Z,0.4
2019-05-05T15:32:47.313Z,0.8
2019-05-05T15:33:56.843Z,0.6
2019-05-05T15:35:06.432Z,0.8
2019-05-05T15:36:15.933Z,0.6
2019-05-05T15:37:25.514Z,0.7
2019-05-05T15:38:35.039Z,0.6
2019-05-05T15:39:44.571Z,0.5
2019-05-05T15:40:54.648Z,0.8
2019-05-05T15:42:04.589Z,0.7
2019-05-05T15:43:14.331Z,0.6
2019-05-05T15:44:24.280Z,0.8
2019-05-05T15:45:34.085Z,0.7
2019-05-05T15:46:44.185Z,0.9
2019-05-05T15:47:54.013Z,0.7
2019-05-05T15:49:04.149Z,0.6
2019-05-05T15:50:13.746Z,0.7
2019-05-05T15:51:23.670Z,0.9
2019-05-05T15:52:32.395Z,1.2
2019-05-05T15:53:41.961Z,0.9
2019-05-05T15:54:51.479Z,1.1
2019-05-05T15:56:01.011Z,0.8
2019-05-05T15:57:12.362Z,0.8
2019-05-05T15:58:21.179Z,0.7
2019-05-05T15:59:30.727Z,0.7
2019-05-05T16:00:40.258Z,0.8
2019-05-05T16:01:49.839Z,0.5
2019-05-05T16:02:59.392Z,0.6
2019-05-05T16:04:08.919Z,0.7
2019-05-05T16:05:18.464Z,0.8
2019-05-05T16:06:27.992Z,0.8
2019-05-05T16:07:38.524Z,0.5
2019-05-05T16:08:48.056Z,0.4
2019-05-05T16:09:57.602Z,0.5